sensor_id;sensor_type;location;lat;lon;timestamp;temperature;humidity
23271;DHT22;11804;51.118;17.058;2022-07-11T00:00:24;15.80;99.90
23271;DHT22;11804;51.118;17.058;2022-07-11T00:02:51;15.80;99.90
23271;DHT22;11804;51.118;17.058;2022-07-11T00:05:19;15.80;99.90
23271;DHT22;11804;51.118;17.058;2022-07-11T00:07:47;15.80;99.90
23271;DHT22;11804;51.118;17.058;2022-07-11T00:10:14;15.80;99.90
23271;DHT22;11804;51.118;17.058;2022-07-11T00:12:43;15.80;99.90
23271;DHT22;11804;51.118;17.058;2022-07-11T00:15:12;15.80;99.90
23271;DHT22;11804;51.118;17.058;2022-07-11T00:17:40;15.80;99.90
23271;DHT22;11804;51.118;17.058;2022-07-11T00:20:09;15.80;99.90
23271;DHT22;11804;51.118;17.058;2022-07-11T00:22:37;15.80;99.90
23271;DHT22;11804;51.118;17.058;2022-07-11T00:25:07;15.80;99.90
23271;DHT22;11804;51.118;17.058;2022-07-11T00:27:34;15.80;99.90
23271;DHT22;11804;51.118;17.058;2022-07-11T00:30:03;15.80;99.90
23271;DHT22;11804;51.118;17.058;2022-07-11T00:32:31;15.70;99.90
23271;DHT22;11804;51.118;17.058;2022-07-11T00:34:59;15.70;99.90
23271;DHT22;11804;51.118;17.058;2022-07-11T00:37:28;15.70;99.90
23271;DHT22;11804;51.118;17.058;2022-07-11T00:39:55;15.70;99.90
23271;DHT22;11804;51.118;17.058;2022-07-11T00:42:25;15.80;99.90
23271;DHT22;11804;51.118;17.058;2022-07-11T00:44:53;15.70;99.90
23271;DHT22;11804;51.118;17.058;2022-07-11T00:47:21;15.80;99.90
23271;DHT22;11804;51.118;17.058;2022-07-11T00:49:48;15.70;99.90
23271;DHT22;11804;51.118;17.058;2022-07-11T00:52:16;15.70;99.90
23271;DHT22;11804;51.118;17.058;2022-07-11T00:54:45;15.70;99.90
23271;DHT22;11804;51.118;17.058;2022-07-11T00:57:14;15.70;99.90
23271;DHT22;11804;51.118;17.058;2022-07-11T00:59:41;15.60;99.90
23271;DHT22;11804;51.118;17.058;2022-07-11T01:02:09;15.50;99.90
23271;DHT22;11804;51.118;17.058;2022-07-11T01:04:37;15.40;99.90
23271;DHT22;11804;51.118;17.058;2022-07-11T01:07:05;15.40;99.90
23271;DHT22;11804;51.118;17.058;2022-07-11T01:09:32;15.40;99.90
23271;DHT22;11804;51.118;17.058;2022-07-11T01:12:00;15.30;99.90
23271;DHT22;11804;51.118;17.058;2022-07-11T01:14:28;15.30;99.90
23271;DHT22;11804;51.118;17.058;2022-07-11T01:16:56;15.20;99.90
23271;DHT22;11804;51.118;17.058;2022-07-11T01:19:23;15.10;99.90
23271;DHT22;11804;51.118;17.058;2022-07-11T01:21:52;15.10;99.90
23271;DHT22;11804;51.118;17.058;2022-07-11T01:24:22;15.10;99.90
23271;DHT22;11804;51.118;17.058;2022-07-11T01:26:51;15.00;99.90
23271;DHT22;11804;51.118;17.058;2022-07-11T01:29:20;15.00;99.90
23271;DHT22;11804;51.118;17.058;2022-07-11T01:31:48;14.90;99.90
23271;DHT22;11804;51.118;17.058;2022-07-11T01:34:15;14.90;99.90
23271;DHT22;11804;51.118;17.058;2022-07-11T01:36:42;14.90;99.90
23271;DHT22;11804;51.118;17.058;2022-07-11T01:39:10;14.80;99.90
23271;DHT22;11804;51.118;17.058;2022-07-11T01:41:38;14.70;99.90
23271;DHT22;11804;51.118;17.058;2022-07-11T01:44:05;14.70;99.90
23271;DHT22;11804;51.118;17.058;2022-07-11T01:46:33;14.70;99.90
23271;DHT22;11804;51.118;17.058;2022-07-11T01:49:00;14.70;99.90
23271;DHT22;11804;51.118;17.058;2022-07-11T01:51:28;14.60;99.90
23271;DHT22;11804;51.118;17.058;2022-07-11T01:53:56;14.60;99.90
23271;DHT22;11804;51.118;17.058;2022-07-11T01:56:24;14.50;99.90
23271;DHT22;11804;51.118;17.058;2022-07-11T01:58:53;14.50;99.90
23271;DHT22;11804;51.118;17.058;2022-07-11T02:01:22;14.40;99.90
23271;DHT22;11804;51.118;17.058;2022-07-11T02:03:51;14.40;99.90
23271;DHT22;11804;51.118;17.058;2022-07-11T02:06:18;14.40;99.90
23271;DHT22;11804;51.118;17.058;2022-07-11T02:08:46;14.40;99.90
23271;DHT22;11804;51.118;17.058;2022-07-11T02:11:15;14.30;99.90
23271;DHT22;11804;51.118;17.058;2022-07-11T02:13:42;14.30;99.90
23271;DHT22;11804;51.118;17.058;2022-07-11T02:16:10;14.30;99.90
23271;DHT22;11804;51.118;17.058;2022-07-11T02:18:37;14.20;99.90
23271;DHT22;11804;51.118;17.058;2022-07-11T02:21:05;14.20;99.90
23271;DHT22;11804;51.118;17.058;2022-07-11T02:23:33;14.20;99.90
23271;DHT22;11804;51.118;17.058;2022-07-11T02:26:00;14.10;99.90
23271;DHT22;11804;51.118;17.058;2022-07-11T02:28:28;14.20;99.90
23271;DHT22;11804;51.118;17.058;2022-07-11T02:30:55;14.10;99.90
23271;DHT22;11804;51.118;17.058;2022-07-11T02:33:23;14.10;99.90
23271;DHT22;11804;51.118;17.058;2022-07-11T02:35:50;14.10;99.90
23271;DHT22;11804;51.118;17.058;2022-07-11T02:38:18;14.10;99.90
23271;DHT22;11804;51.118;17.058;2022-07-11T02:40:45;14.10;99.90
23271;DHT22;11804;51.118;17.058;2022-07-11T02:43:13;14.10;99.90
23271;DHT22;11804;51.118;17.058;2022-07-11T02:45:42;14.00;99.90
23271;DHT22;11804;51.118;17.058;2022-07-11T02:48:09;14.00;99.90
23271;DHT22;11804;51.118;17.058;2022-07-11T02:50:37;13.90;99.90
23271;DHT22;11804;51.118;17.058;2022-07-11T02:53:05;13.80;99.90
23271;DHT22;11804;51.118;17.058;2022-07-11T02:55:32;13.80;99.90
23271;DHT22;11804;51.118;17.058;2022-07-11T02:58:00;13.80;99.90
23271;DHT22;11804;51.118;17.058;2022-07-11T03:00:27;13.80;99.90
23271;DHT22;11804;51.118;17.058;2022-07-11T03:02:55;13.80;99.90
23271;DHT22;11804;51.118;17.058;2022-07-11T03:05:23;13.80;99.90
23271;DHT22;11804;51.118;17.058;2022-07-11T03:07:51;13.90;99.90
23271;DHT22;11804;51.118;17.058;2022-07-11T03:10:18;14.00;99.90
23271;DHT22;11804;51.118;17.058;2022-07-11T03:12:46;14.00;99.90
23271;DHT22;11804;51.118;17.058;2022-07-11T03:15:15;14.10;99.90
23271;DHT22;11804;51.118;17.058;2022-07-11T03:17:42;14.10;99.90
23271;DHT22;11804;51.118;17.058;2022-07-11T03:20:11;14.20;99.90
23271;DHT22;11804;51.118;17.058;2022-07-11T03:22:38;14.20;99.90
23271;DHT22;11804;51.118;17.058;2022-07-11T03:25:07;14.20;99.90
23271;DHT22;11804;51.118;17.058;2022-07-11T03:27:34;14.20;99.90
23271;DHT22;11804;51.118;17.058;2022-07-11T03:30:03;14.50;99.90
23271;DHT22;11804;51.118;17.058;2022-07-11T03:32:31;15.20;99.90
23271;DHT22;11804;51.118;17.058;2022-07-11T03:34:58;16.00;99.90
23271;DHT22;11804;51.118;17.058;2022-07-11T03:37:44;16.60;99.50
23271;DHT22;11804;51.118;17.058;2022-07-11T03:40:13;17.50;94.50
23271;DHT22;11804;51.118;17.058;2022-07-11T03:42:41;17.70;91.20
23271;DHT22;11804;51.118;17.058;2022-07-11T03:45:10;17.80;90.40
23271;DHT22;11804;51.118;17.058;2022-07-11T03:47:38;18.30;88.20
23271;DHT22;11804;51.118;17.058;2022-07-11T03:50:06;18.30;86.40
23271;DHT22;11804;51.118;17.058;2022-07-11T03:52:34;18.40;85.70
23271;DHT22;11804;51.118;17.058;2022-07-11T03:55:02;18.90;83.10
23271;DHT22;11804;51.118;17.058;2022-07-11T03:57:29;19.10;80.40
23271;DHT22;11804;51.118;17.058;2022-07-11T03:59:57;19.50;77.40
23271;DHT22;11804;51.118;17.058;2022-07-11T04:02:26;19.70;76.90
23271;DHT22;11804;51.118;17.058;2022-07-11T04:04:53;19.90;75.20
23271;DHT22;11804;51.118;17.058;2022-07-11T04:07:21;20.10;74.10
23271;DHT22;11804;51.118;17.058;2022-07-11T04:09:48;20.40;74.30
23271;DHT22;11804;51.118;17.058;2022-07-11T04:12:16;21.20;71.20
23271;DHT22;11804;51.118;17.058;2022-07-11T04:14:47;21.20;67.70
23271;DHT22;11804;51.118;17.058;2022-07-11T04:17:14;21.30;67.30
23271;DHT22;11804;51.118;17.058;2022-07-11T04:19:42;21.20;68.30
23271;DHT22;11804;51.118;17.058;2022-07-11T04:22:10;21.60;66.60
23271;DHT22;11804;51.118;17.058;2022-07-11T04:24:38;21.80;65.20
23271;DHT22;11804;51.118;17.058;2022-07-11T04:27:05;21.60;64.40
23271;DHT22;11804;51.118;17.058;2022-07-11T04:29:33;20.80;67.00
23271;DHT22;11804;51.118;17.058;2022-07-11T04:32:01;19.60;71.50
23271;DHT22;11804;51.118;17.058;2022-07-11T04:34:31;19.40;73.80
23271;DHT22;11804;51.118;17.058;2022-07-11T04:36:59;20.10;71.70
23271;DHT22;11804;51.118;17.058;2022-07-11T04:39:26;20.90;68.40
23271;DHT22;11804;51.118;17.058;2022-07-11T04:41:55;21.50;65.40
23271;DHT22;11804;51.118;17.058;2022-07-11T04:44:22;21.60;64.40
23271;DHT22;11804;51.118;17.058;2022-07-11T04:46:50;21.80;63.60
23271;DHT22;11804;51.118;17.058;2022-07-11T04:49:17;23.20;59.30
23271;DHT22;11804;51.118;17.058;2022-07-11T04:51:46;23.70;56.40
23271;DHT22;11804;51.118;17.058;2022-07-11T04:54:14;24.30;55.50
23271;DHT22;11804;51.118;17.058;2022-07-11T04:56:42;24.20;55.30
23271;DHT22;11804;51.118;17.058;2022-07-11T04:59:09;24.40;55.10
23271;DHT22;11804;51.118;17.058;2022-07-11T05:01:37;24.70;54.70
23271;DHT22;11804;51.118;17.058;2022-07-11T05:04:04;25.20;52.90
23271;DHT22;11804;51.118;17.058;2022-07-11T05:06:32;24.90;52.80
23271;DHT22;11804;51.118;17.058;2022-07-11T05:09:00;24.60;53.30
23271;DHT22;11804;51.118;17.058;2022-07-11T05:11:27;25.70;52.50
23271;DHT22;11804;51.118;17.058;2022-07-11T05:13:55;26.00;51.10
23271;DHT22;11804;51.118;17.058;2022-07-11T05:16:23;25.00;51.50
23271;DHT22;11804;51.118;17.058;2022-07-11T05:18:50;25.30;52.50
23271;DHT22;11804;51.118;17.058;2022-07-11T05:21:18;24.90;52.20
23271;DHT22;11804;51.118;17.058;2022-07-11T05:23:47;23.40;55.40
23271;DHT22;11804;51.118;17.058;2022-07-11T05:26:15;22.10;58.10
23271;DHT22;11804;51.118;17.058;2022-07-11T05:28:43;20.90;62.60
23271;DHT22;11804;51.118;17.058;2022-07-11T05:31:10;19.90;66.70
23271;DHT22;11804;51.118;17.058;2022-07-11T05:33:38;19.90;68.40
23271;DHT22;11804;51.118;17.058;2022-07-11T05:36:06;20.90;67.10
23271;DHT22;11804;51.118;17.058;2022-07-11T05:38:35;22.30;61.70
23271;DHT22;11804;51.118;17.058;2022-07-11T05:41:03;23.40;58.10
23271;DHT22;11804;51.118;17.058;2022-07-11T05:43:30;23.70;56.40
23271;DHT22;11804;51.118;17.058;2022-07-11T05:45:58;23.30;57.90
23271;DHT22;11804;51.118;17.058;2022-07-11T05:48:25;23.80;57.40
23271;DHT22;11804;51.118;17.058;2022-07-11T05:50:53;24.50;55.80
23271;DHT22;11804;51.118;17.058;2022-07-11T05:53:21;25.30;54.10
23271;DHT22;11804;51.118;17.058;2022-07-11T05:55:50;25.70;52.20
23271;DHT22;11804;51.118;17.058;2022-07-11T05:58:17;26.10;51.30
23271;DHT22;11804;51.118;17.058;2022-07-11T06:00:45;26.20;50.80
23271;DHT22;11804;51.118;17.058;2022-07-11T06:03:12;26.50;50.00
23271;DHT22;11804;51.118;17.058;2022-07-11T06:05:40;26.70;50.10
23271;DHT22;11804;51.118;17.058;2022-07-11T06:08:07;27.20;49.20
23271;DHT22;11804;51.118;17.058;2022-07-11T06:10:53;26.50;50.10
23271;DHT22;11804;51.118;17.058;2022-07-11T06:13:20;27.80;48.70
23271;DHT22;11804;51.118;17.058;2022-07-11T06:15:48;28.50;47.40
23271;DHT22;11804;51.118;17.058;2022-07-11T06:18:15;28.10;46.90
23271;DHT22;11804;51.118;17.058;2022-07-11T06:20:43;28.20;47.30
23271;DHT22;11804;51.118;17.058;2022-07-11T06:23:10;28.20;47.20
23271;DHT22;11804;51.118;17.058;2022-07-11T06:25:38;26.70;49.40
23271;DHT22;11804;51.118;17.058;2022-07-11T06:28:05;25.30;52.40
23271;DHT22;11804;51.118;17.058;2022-07-11T06:30:33;24.90;53.60
23271;DHT22;11804;51.118;17.058;2022-07-11T06:33:03;24.40;54.60
23271;DHT22;11804;51.118;17.058;2022-07-11T06:35:31;23.50;56.80
23271;DHT22;11804;51.118;17.058;2022-07-11T06:37:58;22.70;59.10
23271;DHT22;11804;51.118;17.058;2022-07-11T06:40:26;21.60;61.60
23271;DHT22;11804;51.118;17.058;2022-07-11T06:42:54;20.80;66.20
23271;DHT22;11804;51.118;17.058;2022-07-11T06:45:21;20.20;69.30
23271;DHT22;11804;51.118;17.058;2022-07-11T06:47:50;19.80;72.80
23271;DHT22;11804;51.118;17.058;2022-07-11T06:50:19;19.60;74.80
23271;DHT22;11804;51.118;17.058;2022-07-11T06:52:47;19.20;77.30
23271;DHT22;11804;51.118;17.058;2022-07-11T06:55:15;19.20;79.10
23271;DHT22;11804;51.118;17.058;2022-07-11T06:57:43;19.30;80.10
23271;DHT22;11804;51.118;17.058;2022-07-11T07:00:11;19.40;80.40
23271;DHT22;11804;51.118;17.058;2022-07-11T07:02:39;19.40;80.50
23271;DHT22;11804;51.118;17.058;2022-07-11T07:05:07;19.60;80.90
23271;DHT22;11804;51.118;17.058;2022-07-11T07:07:37;19.60;81.20
23271;DHT22;11804;51.118;17.058;2022-07-11T07:10:06;19.30;81.90
23271;DHT22;11804;51.118;17.058;2022-07-11T07:12:39;19.10;85.80
23271;DHT22;11804;51.118;17.058;2022-07-11T07:15:08;18.70;92.90
23271;DHT22;11804;51.118;17.058;2022-07-11T07:17:36;18.70;95.90
23271;DHT22;11804;51.118;17.058;2022-07-11T07:20:05;18.60;95.00
23271;DHT22;11804;51.118;17.058;2022-07-11T07:22:35;18.90;94.30
23271;DHT22;11804;51.118;17.058;2022-07-11T07:25:04;19.20;91.60
23271;DHT22;11804;51.118;17.058;2022-07-11T07:27:32;19.60;90.90
23271;DHT22;11804;51.118;17.058;2022-07-11T07:30:00;19.80;89.00
23271;DHT22;11804;51.118;17.058;2022-07-11T07:32:28;20.20;86.70
23271;DHT22;11804;51.118;17.058;2022-07-11T07:34:56;20.40;82.70
23271;DHT22;11804;51.118;17.058;2022-07-11T07:37:25;20.60;81.20
23271;DHT22;11804;51.118;17.058;2022-07-11T07:39:54;20.80;77.40
23271;DHT22;11804;51.118;17.058;2022-07-11T07:42:22;21.40;75.20
23271;DHT22;11804;51.118;17.058;2022-07-11T07:44:49;21.90;72.40
23271;DHT22;11804;51.118;17.058;2022-07-11T07:47:17;21.70;72.10
23271;DHT22;11804;51.118;17.058;2022-07-11T07:49:44;21.40;73.50
23271;DHT22;11804;51.118;17.058;2022-07-11T07:52:12;21.00;74.00
23271;DHT22;11804;51.118;17.058;2022-07-11T07:54:39;20.10;77.90
23271;DHT22;11804;51.118;17.058;2022-07-11T07:57:08;19.60;81.20
23271;DHT22;11804;51.118;17.058;2022-07-11T07:59:36;19.70;82.60
23271;DHT22;11804;51.118;17.058;2022-07-11T08:02:04;20.70;79.30
23271;DHT22;11804;51.118;17.058;2022-07-11T08:04:31;21.90;73.10
23271;DHT22;11804;51.118;17.058;2022-07-11T08:06:59;22.70;70.10
23271;DHT22;11804;51.118;17.058;2022-07-11T08:09:27;22.90;66.30
23271;DHT22;11804;51.118;17.058;2022-07-11T08:11:55;22.00;69.00
23271;DHT22;11804;51.118;17.058;2022-07-11T08:14:22;22.20;68.90
23271;DHT22;11804;51.118;17.058;2022-07-11T08:16:50;22.70;67.10
23271;DHT22;11804;51.118;17.058;2022-07-11T08:19:19;23.40;63.50
23271;DHT22;11804;51.118;17.058;2022-07-11T08:21:46;24.10;59.40
23271;DHT22;11804;51.118;17.058;2022-07-11T08:24:14;26.20;54.50
23271;DHT22;11804;51.118;17.058;2022-07-11T08:26:41;26.10;53.30
23271;DHT22;11804;51.118;17.058;2022-07-11T08:29:09;26.30;53.30
23271;DHT22;11804;51.118;17.058;2022-07-11T08:31:36;25.80;54.60
23271;DHT22;11804;51.118;17.058;2022-07-11T08:34:04;25.30;55.80
23271;DHT22;11804;51.118;17.058;2022-07-11T08:36:31;24.40;56.70
23271;DHT22;11804;51.118;17.058;2022-07-11T08:39:01;23.20;59.60
23271;DHT22;11804;51.118;17.058;2022-07-11T08:41:29;23.80;59.50
23271;DHT22;11804;51.118;17.058;2022-07-11T08:44:00;23.10;60.60
23271;DHT22;11804;51.118;17.058;2022-07-11T08:46:29;23.00;61.40
23271;DHT22;11804;51.118;17.058;2022-07-11T08:48:59;22.70;63.20
23271;DHT22;11804;51.118;17.058;2022-07-11T08:51:27;22.10;64.30
23271;DHT22;11804;51.118;17.058;2022-07-11T08:53:55;21.80;65.60
23271;DHT22;11804;51.118;17.058;2022-07-11T08:56:25;22.00;65.60
23271;DHT22;11804;51.118;17.058;2022-07-11T08:58:53;22.60;63.80
23271;DHT22;11804;51.118;17.058;2022-07-11T09:01:27;22.20;63.50
23271;DHT22;11804;51.118;17.058;2022-07-11T09:03:55;22.50;63.40
23271;DHT22;11804;51.118;17.058;2022-07-11T09:06:24;23.10;61.50
23271;DHT22;11804;51.118;17.058;2022-07-11T09:08:56;24.00;58.90
23271;DHT22;11804;51.118;17.058;2022-07-11T09:11:21;24.40;56.90
23271;DHT22;11804;51.118;17.058;2022-07-11T09:13:49;24.90;55.70
23271;DHT22;11804;51.118;17.058;2022-07-11T09:16:17;24.90;54.50
23271;DHT22;11804;51.118;17.058;2022-07-11T09:18:50;24.00;56.70
23271;DHT22;11804;51.118;17.058;2022-07-11T09:21:19;23.60;57.50
23271;DHT22;11804;51.118;17.058;2022-07-11T09:24:05;22.80;59.30
23271;DHT22;11804;51.118;17.058;2022-07-11T09:26:51;22.00;61.90
23271;DHT22;11804;51.118;17.058;2022-07-11T09:29:21;21.60;65.90
23271;DHT22;11804;51.118;17.058;2022-07-11T09:31:51;21.30;67.70
23271;DHT22;11804;51.118;17.058;2022-07-11T09:34:23;21.10;73.70
23271;DHT22;11804;51.118;17.058;2022-07-11T09:36:53;20.90;72.30
23271;DHT22;11804;51.118;17.058;2022-07-11T09:39:23;20.80;72.00
23271;DHT22;11804;51.118;17.058;2022-07-11T09:41:52;20.70;74.50
23271;DHT22;11804;51.118;17.058;2022-07-11T09:44:28;21.20;79.10
23271;DHT22;11804;51.118;17.058;2022-07-11T09:46:58;22.20;69.00
23271;DHT22;11804;51.118;17.058;2022-07-11T09:49:38;23.60;61.80
23271;DHT22;11804;51.118;17.058;2022-07-11T09:52:12;23.90;62.60
23271;DHT22;11804;51.118;17.058;2022-07-11T09:54:56;24.30;60.00
23271;DHT22;11804;51.118;17.058;2022-07-11T09:57:30;25.20;57.40
23271;DHT22;11804;51.118;17.058;2022-07-11T09:59:59;25.10;56.60
23271;DHT22;11804;51.118;17.058;2022-07-11T10:02:28;23.90;58.30
23271;DHT22;11804;51.118;17.058;2022-07-11T10:04:58;23.70;60.20
23271;DHT22;11804;51.118;17.058;2022-07-11T10:07:27;24.30;56.70
23271;DHT22;11804;51.118;17.058;2022-07-11T10:09:56;23.30;59.10
23271;DHT22;11804;51.118;17.058;2022-07-11T10:12:25;23.30;61.10
23271;DHT22;11804;51.118;17.058;2022-07-11T10:14:55;23.90;58.80
23271;DHT22;11804;51.118;17.058;2022-07-11T10:17:48;24.10;57.80
23271;DHT22;11804;51.118;17.058;2022-07-11T10:23:26;22.80;60.80
23271;DHT22;11804;51.118;17.058;2022-07-11T10:25:48;22.50;62.20
23271;DHT22;11804;51.118;17.058;2022-07-11T10:31:06;21.50;65.90
23271;DHT22;11804;51.118;17.058;2022-07-11T10:33:33;21.70;66.90
23271;DHT22;11804;51.118;17.058;2022-07-11T10:36:00;21.60;66.10
23271;DHT22;11804;51.118;17.058;2022-07-11T10:38:28;21.80;65.80
23271;DHT22;11804;51.118;17.058;2022-07-11T10:40:58;21.90;65.20
23271;DHT22;11804;51.118;17.058;2022-07-11T10:43:33;22.00;64.10
23271;DHT22;11804;51.118;17.058;2022-07-11T10:46:19;22.70;62.50
23271;DHT22;11804;51.118;17.058;2022-07-11T10:52:20;23.20;60.30
23271;DHT22;11804;51.118;17.058;2022-07-11T10:56:53;22.70;60.90
23271;DHT22;11804;51.118;17.058;2022-07-11T10:59:19;23.10;59.80
23271;DHT22;11804;51.118;17.058;2022-07-11T11:02:31;23.50;58.70
23271;DHT22;11804;51.118;17.058;2022-07-11T11:10:06;24.10;57.60
23271;DHT22;11804;51.118;17.058;2022-07-11T11:15:49;24.00;56.30
23271;DHT22;11804;51.118;17.058;2022-07-11T11:26:24;22.90;56.00
23271;DHT22;11804;51.118;17.058;2022-07-11T11:29:03;22.90;54.60
23271;DHT22;11804;51.118;17.058;2022-07-11T11:31:31;22.90;53.30
23271;DHT22;11804;51.118;17.058;2022-07-11T11:34:01;23.20;53.40
23271;DHT22;11804;51.118;17.058;2022-07-11T11:36:29;23.40;53.40
23271;DHT22;11804;51.118;17.058;2022-07-11T11:38:57;23.10;54.60
23271;DHT22;11804;51.118;17.058;2022-07-11T11:41:31;22.90;55.60
23271;DHT22;11804;51.118;17.058;2022-07-11T11:43:57;22.50;58.20
23271;DHT22;11804;51.118;17.058;2022-07-11T11:46:27;22.30;59.70
23271;DHT22;11804;51.118;17.058;2022-07-11T11:48:56;22.30;60.30
23271;DHT22;11804;51.118;17.058;2022-07-11T11:51:30;22.30;60.40
23271;DHT22;11804;51.118;17.058;2022-07-11T11:53:59;22.50;59.70
23271;DHT22;11804;51.118;17.058;2022-07-11T11:56:36;22.90;59.10
23271;DHT22;11804;51.118;17.058;2022-07-11T11:59:11;22.90;58.00
23271;DHT22;11804;51.118;17.058;2022-07-11T12:01:39;22.90;57.80
23271;DHT22;11804;51.118;17.058;2022-07-11T12:04:09;22.90;57.30
23271;DHT22;11804;51.118;17.058;2022-07-11T12:06:44;23.00;57.40
23271;DHT22;11804;51.118;17.058;2022-07-11T12:09:15;22.90;57.60
23271;DHT22;11804;51.118;17.058;2022-07-11T12:11:46;22.50;57.40
23271;DHT22;11804;51.118;17.058;2022-07-11T12:14:16;22.70;57.50
23271;DHT22;11804;51.118;17.058;2022-07-11T12:16:48;22.80;58.00
23271;DHT22;11804;51.118;17.058;2022-07-11T12:19:19;22.60;56.70
23271;DHT22;11804;51.118;17.058;2022-07-11T12:21:50;22.50;57.10
23271;DHT22;11804;51.118;17.058;2022-07-11T12:24:23;22.00;59.70
23271;DHT22;11804;51.118;17.058;2022-07-11T12:26:53;21.50;60.90
23271;DHT22;11804;51.118;17.058;2022-07-11T12:29:23;21.40;62.30
23271;DHT22;11804;51.118;17.058;2022-07-11T12:32:10;21.30;62.70
23271;DHT22;11804;51.118;17.058;2022-07-11T12:37:08;20.00;73.00
23271;DHT22;11804;51.118;17.058;2022-07-11T12:39:38;20.00;77.80
23271;DHT22;11804;51.118;17.058;2022-07-11T12:42:33;19.50;83.60
23271;DHT22;11804;51.118;17.058;2022-07-11T12:45:03;19.40;87.70
23271;DHT22;11804;51.118;17.058;2022-07-11T12:47:43;19.50;90.40
23271;DHT22;11804;51.118;17.058;2022-07-11T12:50:15;19.40;92.50
23271;DHT22;11804;51.118;17.058;2022-07-11T12:52:45;19.30;98.00
23271;DHT22;11804;51.118;17.058;2022-07-11T12:55:26;19.30;99.90
23271;DHT22;11804;51.118;17.058;2022-07-11T12:58:14;19.00;99.90
23271;DHT22;11804;51.118;17.058;2022-07-11T13:01:00;18.40;99.90
23271;DHT22;11804;51.118;17.058;2022-07-11T13:03:34;18.40;99.90
23271;DHT22;11804;51.118;17.058;2022-07-11T13:06:03;18.30;99.90
23271;DHT22;11804;51.118;17.058;2022-07-11T13:08:35;17.90;99.90
23271;DHT22;11804;51.118;17.058;2022-07-11T13:11:16;17.90;99.90
23271;DHT22;11804;51.118;17.058;2022-07-11T13:13:47;18.00;99.90
23271;DHT22;11804;51.118;17.058;2022-07-11T13:16:17;18.00;99.90
23271;DHT22;11804;51.118;17.058;2022-07-11T13:18:46;18.40;99.90
23271;DHT22;11804;51.118;17.058;2022-07-11T13:21:16;18.60;99.90
23271;DHT22;11804;51.118;17.058;2022-07-11T13:23:44;19.00;99.90
23271;DHT22;11804;51.118;17.058;2022-07-11T13:26:12;19.20;99.90
23271;DHT22;11804;51.118;17.058;2022-07-11T13:28:42;19.50;99.90
23271;DHT22;11804;51.118;17.058;2022-07-11T13:31:09;19.60;99.90
23271;DHT22;11804;51.118;17.058;2022-07-11T13:33:41;19.80;99.90
23271;DHT22;11804;51.118;17.058;2022-07-11T13:36:09;20.00;99.90
23271;DHT22;11804;51.118;17.058;2022-07-11T13:38:37;20.10;99.90
23271;DHT22;11804;51.118;17.058;2022-07-11T13:41:05;20.20;99.90
23271;DHT22;11804;51.118;17.058;2022-07-11T13:43:34;20.30;99.90
23271;DHT22;11804;51.118;17.058;2022-07-11T13:46:04;20.30;99.90
23271;DHT22;11804;51.118;17.058;2022-07-11T13:48:31;20.40;99.90
23271;DHT22;11804;51.118;17.058;2022-07-11T13:50:59;20.40;99.90
23271;DHT22;11804;51.118;17.058;2022-07-11T13:53:27;20.40;99.90
23271;DHT22;11804;51.118;17.058;2022-07-11T13:55:54;20.40;99.90
23271;DHT22;11804;51.118;17.058;2022-07-11T13:58:22;20.30;99.90
23271;DHT22;11804;51.118;17.058;2022-07-11T14:00:53;20.10;99.90
23271;DHT22;11804;51.118;17.058;2022-07-11T14:03:22;20.00;99.90
23271;DHT22;11804;51.118;17.058;2022-07-11T14:05:50;19.90;99.90
23271;DHT22;11804;51.118;17.058;2022-07-11T14:08:18;19.80;99.90
23271;DHT22;11804;51.118;17.058;2022-07-11T14:10:45;19.60;99.90
23271;DHT22;11804;51.118;17.058;2022-07-11T14:13:13;19.80;98.80
23271;DHT22;11804;51.118;17.058;2022-07-11T14:15:40;19.90;98.30
23271;DHT22;11804;51.118;17.058;2022-07-11T14:18:08;19.80;94.20
23271;DHT22;11804;51.118;17.058;2022-07-11T14:20:37;20.00;92.60
23271;DHT22;11804;51.118;17.058;2022-07-11T14:23:05;20.10;93.00
23271;DHT22;11804;51.118;17.058;2022-07-11T14:25:33;20.30;92.20
23271;DHT22;11804;51.118;17.058;2022-07-11T14:28:00;20.40;92.20
23271;DHT22;11804;51.118;17.058;2022-07-11T14:30:30;20.30;91.20
23271;DHT22;11804;51.118;17.058;2022-07-11T14:32:58;20.40;87.70
23271;DHT22;11804;51.118;17.058;2022-07-11T14:35:26;20.40;84.90
23271;DHT22;11804;51.118;17.058;2022-07-11T14:37:55;20.40;83.50
23271;DHT22;11804;51.118;17.058;2022-07-11T14:40:23;20.40;83.50
23271;DHT22;11804;51.118;17.058;2022-07-11T14:42:51;20.90;82.00
23271;DHT22;11804;51.118;17.058;2022-07-11T14:45:19;20.90;77.70
23271;DHT22;11804;51.118;17.058;2022-07-11T14:47:46;20.90;77.50
23271;DHT22;11804;51.118;17.058;2022-07-11T14:50:14;20.90;74.20
23271;DHT22;11804;51.118;17.058;2022-07-11T14:52:41;20.90;73.90
23271;DHT22;11804;51.118;17.058;2022-07-11T14:55:12;20.90;73.30
23271;DHT22;11804;51.118;17.058;2022-07-11T14:57:39;21.20;72.10
23271;DHT22;11804;51.118;17.058;2022-07-11T15:00:07;21.40;70.10
23271;DHT22;11804;51.118;17.058;2022-07-11T15:02:35;21.20;68.50
23271;DHT22;11804;51.118;17.058;2022-07-11T15:05:20;21.00;70.30
23271;DHT22;11804;51.118;17.058;2022-07-11T15:07:47;20.90;70.80
23271;DHT22;11804;51.118;17.058;2022-07-11T15:10:33;20.80;72.20
23271;DHT22;11804;51.118;17.058;2022-07-11T15:13:18;20.60;79.20
23271;DHT22;11804;51.118;17.058;2022-07-11T15:15:48;19.90;92.60
23271;DHT22;11804;51.118;17.058;2022-07-11T15:18:16;19.20;99.90
23271;DHT22;11804;51.118;17.058;2022-07-11T15:20:43;18.70;99.90
23271;DHT22;11804;51.118;17.058;2022-07-11T15:23:11;18.30;99.90
23271;DHT22;11804;51.118;17.058;2022-07-11T15:25:38;18.10;99.90
23271;DHT22;11804;51.118;17.058;2022-07-11T15:28:06;17.90;99.90
23271;DHT22;11804;51.118;17.058;2022-07-11T15:30:33;18.00;99.90
23271;DHT22;11804;51.118;17.058;2022-07-11T15:33:01;18.00;99.90
23271;DHT22;11804;51.118;17.058;2022-07-11T15:35:30;18.10;99.90
23271;DHT22;11804;51.118;17.058;2022-07-11T15:37:58;18.10;99.90
23271;DHT22;11804;51.118;17.058;2022-07-11T15:40:26;18.20;99.90
23271;DHT22;11804;51.118;17.058;2022-07-11T15:42:53;18.50;99.90
23271;DHT22;11804;51.118;17.058;2022-07-11T15:45:21;18.70;99.90
23271;DHT22;11804;51.118;17.058;2022-07-11T15:47:50;18.80;99.90
23271;DHT22;11804;51.118;17.058;2022-07-11T15:50:18;18.90;99.90
23271;DHT22;11804;51.118;17.058;2022-07-11T15:52:46;19.00;99.90
23271;DHT22;11804;51.118;17.058;2022-07-11T15:55:14;19.20;99.90
23271;DHT22;11804;51.118;17.058;2022-07-11T15:57:41;19.30;99.90